createdAt,value
2022-10-19T00:01:10.335Z,102766.16
2022-10-19T00:03:37.395Z,102774.16
2022-10-19T00:06:21.479Z,102779.34
2022-10-19T00:08:47.964Z,102785.44
2022-10-19T00:11:14.432Z,102788.84
2022-10-19T00:13:40.991Z,102799.19
2022-10-19T00:16:11.617Z,102802.66
2022-10-19T00:18:38.795Z,102794.88
2022-10-19T00:21:07.259Z,102767.66
2022-10-19T00:23:34.580Z,102799.13
2022-10-19T00:26:01.583Z,102797.31
2022-10-19T00:28:28.742Z,102794.63
2022-10-19T00:30:55.604Z,102797.16
2022-10-19T00:33:23.206Z,102798.81
2022-10-19T00:35:51.196Z,102800.47
2022-10-19T00:38:21.227Z,102803.84
2022-10-19T00:40:48.733Z,102808.97
2022-10-19T00:43:22.125Z,102793.91
2022-10-19T00:45:48.694Z,102810.53
2022-10-19T00:48:24.609Z,102796.34
2022-10-19T00:50:54.084Z,102796.50
2022-10-19T00:53:21.426Z,102795.56
2022-10-19T00:55:48.047Z,102796.34
2022-10-19T00:58:14.955Z,102789.31
2022-10-19T01:00:41.561Z,102790.97
2022-10-19T01:03:09.544Z,102778.75
2022-10-19T01:05:36.387Z,102765.63
2022-10-19T01:08:03.315Z,102769.06
2022-10-19T01:11:00.821Z,102769.81
2022-10-19T01:13:56.043Z,102766.22
2022-10-19T01:16:25.414Z,102769.63
2022-10-19T01:19:05.155Z,102751.97
2022-10-19T01:21:48.754Z,102727.53
2022-10-19T01:24:15.157Z,102751.22
2022-10-19T01:26:53.706Z,102743.34
2022-10-19T01:29:38.070Z,102744.09
2022-10-19T01:32:15.887Z,102739.66
2022-10-19T01:35:07.599Z,102736.19
2022-10-19T01:37:38.355Z,102737.00
2022-10-19T01:40:11.137Z,102737.81
2022-10-19T01:42:56.206Z,102733.41
2022-10-19T01:45:47.409Z,102729.03
2022-10-19T01:48:28.736Z,102721.91
2022-10-19T01:51:17.594Z,102732.28
2022-10-19T01:53:49.813Z,102700.81
2022-10-19T01:56:20.214Z,102723.50
2022-10-19T01:58:47.483Z,102713.91
2022-10-19T02:01:19.325Z,102706.97
2022-10-19T02:03:48.909Z,102719.03
2022-10-19T02:06:15.446Z,102709.38
2022-10-19T02:08:47.684Z,102704.13
2022-10-19T02:11:15.294Z,102697.91
2022-10-19T02:13:44.395Z,102697.97
2022-10-19T02:16:25.957Z,102699.53
2022-10-19T02:18:55.014Z,102680.16
2022-10-19T02:21:21.730Z,102691.66
2022-10-19T02:23:49.423Z,102690.72
2022-10-19T02:26:19.060Z,102667.13
2022-10-19T02:28:46.024Z,102687.22
2022-10-19T02:31:13.091Z,102686.28
2022-10-19T02:33:39.737Z,102690.53
2022-10-19T02:36:06.440Z,102680.09
2022-10-19T02:38:33.167Z,102680.09
2022-10-19T02:41:23.311Z,102684.34
2022-10-19T02:43:54.611Z,102693.75
2022-10-19T02:46:31.772Z,102678.97
2022-10-19T02:48:59.081Z,102669.44
2022-10-19T02:51:37.248Z,102658.06
2022-10-19T02:54:05.995Z,102652.88
2022-10-19T02:56:33.915Z,102652.81
2022-10-19T02:59:01.412Z,102644.09
2022-10-19T03:01:27.850Z,102645.81
2022-10-19T03:03:54.305Z,102644.03
2022-10-19T03:06:20.765Z,102647.44
2022-10-19T03:08:47.249Z,102648.16
2022-10-19T03:11:13.678Z,102652.44
2022-10-19T03:13:41.284Z,102627.03
2022-10-19T03:16:11.835Z,102647.06
2022-10-19T03:18:38.463Z,102648.72
2022-10-19T03:21:07.864Z,102643.47
2022-10-19T03:23:34.914Z,102646.06
2022-10-19T03:26:02.200Z,102643.47
2022-10-19T03:28:28.846Z,102635.69
2022-10-19T03:30:55.832Z,102633.09
2022-10-19T03:33:23.207Z,102637.41
2022-10-19T03:35:49.662Z,102632.22
2022-10-19T03:38:16.521Z,102620.97
2022-10-19T03:40:43.317Z,102619.22
2022-10-19T03:43:09.727Z,102620.06
2022-10-19T03:45:36.227Z,102618.25
2022-10-19T03:48:02.745Z,102618.25
2022-10-19T03:50:29.204Z,102600.09
2022-10-19T03:52:55.807Z,102593.16
2022-10-19T03:55:22.337Z,102587.91
2022-10-19T03:57:48.792Z,102582.72
2022-10-19T04:00:15.616Z,102573.25
2022-10-19T04:02:41.983Z,102579.25
2022-10-19T04:05:08.622Z,102566.19
2022-10-19T04:07:35.161Z,102576.66
2022-10-19T04:10:01.946Z,102578.38
2022-10-19T04:12:28.477Z,102569.84
2022-10-19T04:14:58.112Z,102580.34
2022-10-19T04:17:25.479Z,102573.44
2022-10-19T04:19:51.907Z,102583.16
2022-10-19T04:22:18.378Z,102574.63
2022-10-19T04:24:44.829Z,102566.16
2022-10-19T04:27:11.320Z,102570.56
2022-10-19T04:29:37.882Z,102571.56
2022-10-19T04:32:04.388Z,102582.09
2022-10-19T04:34:30.904Z,102590.00
2022-10-19T04:36:57.357Z,102578.88
2022-10-19T04:39:23.809Z,102573.81
2022-10-19T04:41:50.265Z,102559.91
2022-10-19T04:44:16.768Z,102573.16
2022-10-19T04:46:43.238Z,102579.22
2022-10-19T04:49:09.737Z,102583.69
2022-10-19T04:51:36.187Z,102582.84
2022-10-19T04:54:03.787Z,102583.75
2022-10-19T04:56:30.546Z,102576.06
2022-10-19T04:58:58.402Z,102576.97
2022-10-19T05:01:26.044Z,102567.50
2022-10-19T05:04:01.394Z,102539.50
2022-10-19T05:06:28.954Z,102553.69
2022-10-19T05:08:56.106Z,102551.09
2022-10-19T05:11:22.792Z,102550.19
2022-10-19T05:13:49.337Z,102551.94
2022-10-19T05:16:18.592Z,102559.75
2022-10-19T05:18:49.717Z,102557.22
2022-10-19T05:21:17.341Z,102565.06
2022-10-19T05:23:44.350Z,102566.81
2022-10-19T05:26:14.101Z,102566.81
2022-10-19T05:28:40.649Z,102567.75
2022-10-19T05:31:12.954Z,102566.97
2022-10-19T05:33:40.056Z,102560.06
2022-10-19T05:36:13.406Z,102541.66
2022-10-19T05:38:40.027Z,102548.09
2022-10-19T05:41:06.791Z,102538.56
2022-10-19T05:43:33.488Z,102541.22
2022-10-19T05:46:08.017Z,102542.97
2022-10-19T05:48:35.191Z,102546.44
2022-10-19T05:51:03.628Z,102539.53
2022-10-19T05:53:30.134Z,102537.84
2022-10-19T05:55:57.095Z,102530.06
2022-10-19T05:58:24.343Z,102526.63
2022-10-19T06:00:52.951Z,102523.16
2022-10-19T06:03:19.462Z,102512.81
2022-10-19T06:05:45.925Z,102512.91
2022-10-19T06:08:12.407Z,102509.47
2022-10-19T06:10:38.848Z,102499.09
2022-10-19T06:13:05.369Z,102503.44
2022-10-19T06:15:36.189Z,102500.00
2022-10-19T06:18:07.422Z,102495.72
2022-10-19T06:20:35.367Z,102484.41
2022-10-19T06:23:02.317Z,102482.84
2022-10-19T06:25:30.022Z,102488.88
2022-10-19T06:27:56.515Z,102490.69
2022-10-19T06:30:23.096Z,102483.84
2022-10-19T06:32:49.673Z,102475.22
2022-10-19T06:35:16.245Z,102480.47
2022-10-19T06:37:43.055Z,102486.59
2022-10-19T06:40:10.571Z,102484.00
2022-10-19T06:42:37.338Z,102484.00
2022-10-19T06:45:10.842Z,102480.63
2022-10-19T06:47:38.170Z,102482.38
2022-10-19T06:50:06.309Z,102499.69
2022-10-19T06:52:34.736Z,102502.31
2022-10-19T06:55:02.211Z,102492.75
2022-10-19T06:57:28.999Z,102490.31
2022-10-19T06:59:55.484Z,102485.13
2022-10-19T07:02:22.050Z,102491.19
2022-10-19T07:04:48.560Z,102498.13
2022-10-19T07:07:15.062Z,102495.63
2022-10-19T07:09:41.499Z,102491.34
2022-10-19T07:12:08.547Z,102499.25
2022-10-19T07:14:35.005Z,102488.88
2022-10-19T07:17:01.460Z,102488.16
2022-10-19T07:19:27.985Z,102477.91
2022-10-19T07:21:54.587Z,102480.63
2022-10-19T07:24:21.133Z,102482.50
2022-10-19T07:26:47.577Z,102480.91
2022-10-19T07:29:14.108Z,102491.41
2022-10-19T07:31:40.616Z,102490.75
2022-10-19T07:34:07.453Z,102483.06
2022-10-19T07:36:35.703Z,102466.50
2022-10-19T07:39:04.025Z,102483.44
2022-10-19T07:41:30.498Z,102479.25
2022-10-19T07:43:57.121Z,102484.56
2022-10-19T07:46:26.060Z,102494.22
2022-10-19T07:48:53.104Z,102492.69
2022-10-19T07:51:20.932Z,102485.03
2022-10-19T07:53:47.433Z,102480.81
2022-10-19T07:56:16.452Z,102477.50
2022-10-19T07:58:43.340Z,102468.16
2022-10-19T08:01:15.263Z,102463.94
2022-10-19T08:04:31.792Z,102466.69
2022-10-19T08:06:29.244Z,102456.44
2022-10-19T08:08:56.304Z,102448.78
2022-10-19T08:11:28.986Z,102447.16
2022-10-19T08:13:55.947Z,102428.19
2022-10-19T08:16:27.180Z,102438.75
2022-10-19T08:18:58.276Z,102409.25
2022-10-19T08:21:26.464Z,102419.06
2022-10-19T08:23:53.518Z,102420.09
2022-10-19T08:26:20.928Z,102427.97
2022-10-19T08:28:47.584Z,102421.97
2022-10-19T08:31:17.033Z,102428.19
2022-10-19T08:33:44.263Z,102426.56
2022-10-19T08:36:12.659Z,102426.69
2022-10-19T08:38:40.010Z,102427.66
2022-10-19T08:41:21.916Z,102425.16
2022-10-19T08:43:59.751Z,102418.31
2022-10-19T08:46:56.016Z,102412.31
2022-10-19T08:49:25.691Z,102417.63
2022-10-19T08:51:59.307Z,102397.63
2022-10-19T08:54:35.562Z,102391.66
2022-10-19T08:57:26.790Z,102402.22
2022-10-19T08:59:56.845Z,102371.66
2022-10-19T09:02:55.635Z,102403.19
2022-10-19T09:05:55.759Z,102398.06
2022-10-19T09:08:22.255Z,102401.56
2022-10-19T09:10:54.184Z,102380.69
2022-10-19T09:14:03.737Z,102408.66
2022-10-19T09:16:30.412Z,102397.34
2022-10-19T09:18:57.020Z,102400.84
2022-10-19T09:21:36.831Z,102368.66
2022-10-19T09:24:16.298Z,102377.41
2022-10-19T09:26:54.376Z,102389.59
2022-10-19T09:29:20.954Z,102380.06
2022-10-19T09:31:53.165Z,102378.38
2022-10-19T09:34:49.155Z,102379.28
2022-10-19T09:37:24.816Z,102371.47
2022-10-19T09:39:54.975Z,102381.09
2022-10-19T09:42:31.213Z,102366.25
2022-10-19T09:45:00.793Z,102370.66
2022-10-19T09:47:35.337Z,102339.28
2022-10-19T09:50:22.288Z,102363.69
2022-10-19T09:52:55.255Z,102360.19
2022-10-19T09:55:33.753Z,102357.56
2022-10-19T09:58:29.133Z,102351.47
2022-10-19T10:00:59.077Z,102363.69
2022-10-19T10:03:33.015Z,102370.66
2022-10-19T10:06:05.605Z,102361.06
2022-10-19T10:08:36.313Z,102360.19
2022-10-19T10:11:12.828Z,102356.72
2022-10-19T10:13:59.505Z,102365.44
2022-10-19T10:16:29.859Z,102358.50
2022-10-19T10:19:03.728Z,102355.03
2022-10-19T10:21:45.331Z,102332.31
2022-10-19T10:24:11.659Z,102346.28
2022-10-19T10:26:44.234Z,102352.41
2022-10-19T10:29:37.806Z,102341.94
2022-10-19T10:32:16.146Z,102348.06
2022-10-19T10:34:57.290Z,102344.56
2022-10-19T10:37:42.649Z,102320.13
2022-10-19T10:40:35.961Z,102336.72
2022-10-19T10:43:06.273Z,102346.31
2022-10-19T10:45:39.654Z,102323.66
2022-10-19T10:48:23.541Z,102321.88
2022-10-19T10:50:50.230Z,102333.22
2022-10-19T10:53:42.573Z,102328.88
2022-10-19T10:56:30.340Z,102331.50
2022-10-19T10:59:05.186Z,102332.38
2022-10-19T11:01:45.464Z,102312.34
2022-10-19T11:04:17.415Z,102334.09
2022-10-19T11:06:51.590Z,102336.72
2022-10-19T11:09:29.230Z,102328.84
2022-10-19T11:11:59.830Z,102321.88
2022-10-19T11:15:03.109Z,102314.88
2022-10-19T11:17:34.006Z,102302.69
2022-10-19T11:20:00.624Z,102314.88
2022-10-19T11:22:38.766Z,102290.47
2022-10-19T11:25:31.281Z,102304.38
2022-10-19T11:28:08.093Z,102294.78
2022-10-19T11:30:43.276Z,102307.88
2022-10-19T11:33:21.914Z,102309.63
2022-10-19T11:35:59.440Z,102300.03
2022-10-19T11:38:44.633Z,102292.16
2022-10-19T11:41:38.529Z,102284.31
2022-10-19T11:44:16.854Z,102279.91
2022-10-19T11:47:04.448Z,102271.19
2022-10-19T11:49:44.568Z,102269.41
2022-10-19T11:52:25.856Z,102274.63
2022-10-19T11:55:15.753Z,102252.84
2022-10-19T11:58:03.855Z,102271.13
2022-10-19T12:00:40.342Z,102258.91
2022-10-19T12:03:34.329Z,102241.47
2022-10-19T12:06:16.729Z,102227.47
2022-10-19T12:09:04.642Z,102215.25
2022-10-19T12:11:43.045Z,102196.94
2022-10-19T12:14:16.216Z,102187.31
2022-10-19T12:16:47.671Z,102175.06
2022-10-19T12:19:26.021Z,102161.94
2022-10-19T12:21:58.514Z,102164.53
2022-10-19T12:24:26.231Z,102159.25
2022-10-19T12:26:54.729Z,102151.38
2022-10-19T12:29:28.175Z,102152.16
2022-10-19T12:31:57.311Z,102109.50
2022-10-19T12:34:44.404Z,102123.28
2022-10-19T12:37:38.104Z,102150.16
2022-10-19T12:40:29.183Z,102133.50
2022-10-19T12:43:17.996Z,102106.41
2022-10-19T12:46:10.879Z,102104.53
2022-10-19T12:48:37.368Z,102105.34
2022-10-19T12:51:09.989Z,102093.97
2022-10-19T12:53:40.354Z,102085.25
2022-10-19T12:56:09.851Z,102080.94
2022-10-19T12:58:47.726Z,102074.00
2022-10-19T13:01:35.453Z,102064.41
2022-10-19T13:04:14.873Z,102055.66
2022-10-19T13:06:44.901Z,102054.72
2022-10-19T13:09:29.730Z,102053.78
2022-10-19T13:12:17.674Z,102051.09
2022-10-19T13:14:53.382Z,102048.47
2022-10-19T13:17:35.148Z,102045.84
2022-10-19T13:20:13.748Z,102038.91
2022-10-19T13:22:49.122Z,102033.69
2022-10-19T13:25:24.115Z,102005.91
2022-10-19T13:27:52.299Z,102011.06
2022-10-19T13:30:36.965Z,102012.03
2022-10-19T13:33:28.205Z,102006.00
2022-10-19T13:36:15.078Z,102003.44
2022-10-19T13:38:50.666Z,101999.94
2022-10-19T13:41:26.995Z,102000.75
2022-10-19T13:44:11.475Z,102003.38
2022-10-19T13:46:52.276Z,101995.50
2022-10-19T13:50:11.435Z,101992.00
2022-10-19T13:52:53.768Z,101978.13
2022-10-19T13:55:45.214Z,102000.72
2022-10-19T13:58:19.471Z,101991.06
2022-10-19T14:01:30.837Z,101971.03
2022-10-19T14:04:51.650Z,101977.16
2022-10-19T14:07:29.289Z,101966.53
2022-10-19T14:10:04.632Z,101968.19
2022-10-19T14:12:36.553Z,101939.38
2022-10-19T14:15:18.215Z,101947.03
2022-10-19T14:17:44.983Z,101937.25
2022-10-19T14:20:35.856Z,101931.03
2022-10-19T14:23:24.187Z,101939.53
2022-10-19T14:25:57.487Z,101921.22
2022-10-19T14:28:24.800Z,101925.41
2022-10-19T14:31:17.071Z,101913.97
2022-10-19T14:33:47.586Z,101911.31
2022-10-19T14:36:17.648Z,101913.94
2022-10-19T14:38:44.319Z,101911.31
2022-10-19T14:41:28.799Z,101903.47
2022-10-19T14:43:59.707Z,101894.81
2022-10-19T14:46:34.286Z,101899.25
2022-10-19T14:49:03.272Z,101899.34
2022-10-19T14:51:42.527Z,101881.16
2022-10-19T14:54:29.176Z,101883.03
2022-10-19T14:57:12.342Z,101857.13
2022-10-19T14:59:49.796Z,101866.75
2022-10-19T15:02:38.252Z,101868.63
2022-10-19T15:05:06.517Z,101871.25
2022-10-19T15:07:39.821Z,101852.13
2022-10-19T15:10:20.082Z,101856.41
2022-10-19T15:12:47.502Z,101836.31
2022-10-19T15:15:26.265Z,101824.97
2022-10-19T15:17:59.962Z,101842.34
2022-10-19T15:20:44.248Z,101845.91
2022-10-19T15:23:32.202Z,101836.47
2022-10-19T15:26:07.218Z,101840.94
2022-10-19T15:28:41.422Z,101835.72
2022-10-19T15:31:15.684Z,101827.13
2022-10-19T15:33:48.816Z,101821.97
2022-10-19T15:36:15.615Z,101809.88
2022-10-19T15:38:42.636Z,101792.50
2022-10-19T15:41:18.224Z,101768.28
2022-10-19T15:43:52.944Z,101792.59
2022-10-19T15:46:32.771Z,101784.00
2022-10-19T15:49:17.495Z,101779.72
2022-10-19T15:51:48.258Z,101785.00
2022-10-19T15:54:16.722Z,101789.41
2022-10-19T15:56:50.617Z,101772.09
2022-10-19T15:59:19.590Z,101777.41
2022-10-19T16:01:47.167Z,101767.94
2022-10-19T16:04:14.899Z,101780.16
2022-10-19T16:06:44.024Z,101784.63
2022-10-19T16:09:20.160Z,101773.41
2022-10-19T16:11:47.251Z,101779.47
2022-10-19T16:14:13.914Z,101784.81
2022-10-19T16:16:40.709Z,101786.59
2022-10-19T16:19:07.467Z,101798.00
2022-10-19T16:21:35.909Z,101772.00
2022-10-19T16:24:02.438Z,101792.00
2022-10-19T16:26:29.327Z,101771.13
2022-10-19T16:28:56.649Z,101758.09
2022-10-19T16:31:24.068Z,101757.28
2022-10-19T16:33:50.818Z,101750.34
2022-10-19T16:36:17.399Z,101745.09
2022-10-19T16:38:43.795Z,101738.19
2022-10-19T16:41:10.956Z,101724.28
2022-10-19T16:43:37.918Z,101732.13
2022-10-19T16:46:05.223Z,101721.72
2022-10-19T16:48:32.538Z,101715.63
2022-10-19T16:51:08.200Z,101712.19
2022-10-19T16:53:35.338Z,101719.16
2022-10-19T16:56:10.581Z,101708.75
2022-10-19T16:58:37.290Z,101703.56
2022-10-19T17:01:17.259Z,101694.91
2022-10-19T17:03:44.815Z,101697.56
2022-10-19T17:06:11.910Z,101688.84
2022-10-19T17:09:14.288Z,101690.63
2022-10-19T17:11:31.430Z,101686.31
2022-10-19T17:14:00.615Z,101684.59
2022-10-19T17:16:29.558Z,101671.56
2022-10-19T17:18:57.533Z,101687.22
2022-10-19T17:21:29.598Z,101659.50
2022-10-19T17:23:58.985Z,101665.56
2022-10-19T17:26:31.420Z,101677.72
2022-10-19T17:28:59.273Z,101675.13
2022-10-19T17:31:26.561Z,101672.56
2022-10-19T17:33:53.582Z,101672.56
2022-10-19T17:36:23.100Z,101669.97
2022-10-19T17:38:49.601Z,101671.69
2022-10-19T17:41:17.991Z,101656.09
2022-10-19T17:43:46.159Z,101642.22
2022-10-19T17:46:15.264Z,101668.28
2022-10-19T17:48:42.809Z,101681.31
2022-10-19T17:51:14.931Z,101650.94
2022-10-19T17:53:46.014Z,101659.59
2022-10-19T17:56:14.579Z,101658.72
2022-10-19T17:58:41.449Z,101656.16
2022-10-19T18:01:08.950Z,101668.28
2022-10-19T18:03:37.037Z,101674.41
2022-10-19T18:06:05.637Z,101667.44
2022-10-19T18:08:38.472Z,101637.91
2022-10-19T18:11:11.166Z,101653.50
2022-10-19T18:13:38.615Z,101643.09
2022-10-19T18:16:15.072Z,101636.19
2022-10-19T18:18:43.335Z,101645.69
2022-10-19T18:21:13.045Z,101615.31
2022-10-19T18:23:40.236Z,101628.28
2022-10-19T18:26:09.953Z,101622.22
2022-10-19T18:28:36.657Z,101630.91
2022-10-19T18:31:12.215Z,101630.94
2022-10-19T18:33:39.087Z,101620.50
2022-10-19T18:36:07.515Z,101622.22
2022-10-19T18:38:34.836Z,101620.50
2022-10-19T18:41:06.087Z,101617.88
2022-10-19T18:43:32.956Z,101625.72
2022-10-19T18:46:00.757Z,101618.75
2022-10-19T18:48:29.462Z,101617.06
2022-10-19T18:50:57.208Z,101623.09
2022-10-19T18:53:24.228Z,101617.00
2022-10-19T18:56:01.853Z,101601.41
2022-10-19T18:58:28.418Z,101617.00
2022-10-19T19:01:06.995Z,101610.09
2022-10-19T19:03:34.600Z,101611.81
2022-10-19T19:06:10.610Z,101601.41
2022-10-19T19:08:37.389Z,101587.44
2022-10-19T19:11:12.736Z,101575.31
2022-10-19T19:13:40.499Z,101571.78
2022-10-19T19:16:08.182Z,101562.22
2022-10-19T19:18:35.675Z,101566.59
2022-10-19T19:21:03.839Z,101562.25
2022-10-19T19:23:30.834Z,101568.31
2022-10-19T19:25:57.515Z,101571.81
2022-10-19T19:28:24.026Z,101573.56
2022-10-19T19:30:50.451Z,101577.00
2022-10-19T19:33:16.922Z,101560.53
2022-10-19T19:35:44.712Z,101551.78
2022-10-19T19:38:12.325Z,101551.81
2022-10-19T19:40:43.986Z,101534.47
2022-10-19T19:43:11.690Z,101543.97
2022-10-19T19:45:38.926Z,101554.44
2022-10-19T19:48:06.451Z,101537.88
2022-10-19T19:50:33.893Z,101537.88
2022-10-19T19:53:01.455Z,101539.56
2022-10-19T19:55:28.376Z,101541.31
2022-10-19T19:57:55.213Z,101550.00
2022-10-19T20:00:22.824Z,101535.22
2022-10-19T20:02:56.562Z,101521.25
2022-10-19T20:05:24.608Z,101522.13
2022-10-19T20:07:51.559Z,101507.28
2022-10-19T20:10:18.826Z,101497.72
2022-10-19T20:12:46.881Z,101494.22
2022-10-19T20:15:16.430Z,101483.75
2022-10-19T20:17:43.524Z,101486.34
2022-10-19T20:20:11.480Z,101485.50
2022-10-19T20:22:38.377Z,101481.09
2022-10-19T20:25:05.412Z,101479.34
2022-10-19T20:27:36.086Z,101477.63
2022-10-19T20:30:03.377Z,101463.69
2022-10-19T20:32:30.656Z,101465.44
2022-10-19T20:34:57.328Z,101473.25
2022-10-19T20:37:24.457Z,101475.00
2022-10-19T20:39:51.206Z,101470.66
2022-10-19T20:42:18.948Z,101470.59
2022-10-19T20:44:45.612Z,101458.41
2022-10-19T20:47:12.328Z,101456.66
2022-10-19T20:49:38.791Z,101437.47
2022-10-19T20:52:05.245Z,101425.34
2022-10-19T20:54:31.867Z,101432.25
2022-10-19T20:56:58.717Z,101426.16
2022-10-19T20:59:25.397Z,101415.72
2022-10-19T21:01:53.183Z,101419.19
2022-10-19T21:04:19.887Z,101413.09
2022-10-19T21:06:49.232Z,101401.81
2022-10-19T21:09:22.194Z,101394.00
2022-10-19T21:11:50.999Z,101390.50
2022-10-19T21:14:26.915Z,101388.81
2022-10-19T21:16:56.400Z,101408.81
2022-10-19T21:19:24.274Z,101400.97
2022-10-19T21:21:58.883Z,101399.25
2022-10-19T21:24:28.277Z,101398.31
2022-10-19T21:26:54.821Z,101382.66
2022-10-19T21:29:21.611Z,101384.41
2022-10-19T21:31:50.002Z,101374.09
2022-10-19T21:34:19.436Z,101375.81
2022-10-19T21:36:46.663Z,101397.50
2022-10-19T21:39:13.115Z,101377.50
2022-10-19T21:41:39.573Z,101372.28
2022-10-19T21:44:06.029Z,101357.47
2022-10-19T21:46:32.552Z,101370.53
2022-10-19T21:48:59.003Z,101359.22
2022-10-19T21:51:46.018Z,101378.38
2022-10-19T21:54:15.304Z,101366.19
2022-10-19T21:56:42.144Z,101376.63
2022-10-19T21:59:08.839Z,101351.38
2022-10-19T22:01:38.718Z,101356.56
2022-10-19T22:04:13.437Z,101350.59
2022-10-19T22:06:40.466Z,101366.13
2022-10-19T22:09:08.771Z,101358.28
2022-10-19T22:11:35.428Z,101353.94
2022-10-19T22:14:03.492Z,101353.94
2022-10-19T22:16:31.761Z,101340.06
2022-10-19T22:18:58.850Z,101345.22
2022-10-19T22:21:29.550Z,101333.06
2022-10-19T22:23:58.741Z,101307.03
2022-10-19T22:26:28.256Z,101320.94
2022-10-19T22:28:59.187Z,101332.13
2022-10-19T22:31:27.164Z,101333.84
2022-10-19T22:33:53.769Z,101324.34
2022-10-19T22:36:20.735Z,101334.72
2022-10-19T22:38:47.432Z,101324.28
2022-10-19T22:41:13.878Z,101323.41
2022-10-19T22:43:40.305Z,101310.34
2022-10-19T22:46:06.901Z,101298.19
2022-10-19T22:48:33.362Z,101298.19
2022-10-19T22:50:59.770Z,101299.97
2022-10-19T22:53:26.194Z,101305.19
2022-10-19T22:55:52.685Z,101308.66
2022-10-19T22:58:19.289Z,101310.41
2022-10-19T23:00:45.932Z,101294.75
2022-10-19T23:03:12.370Z,101302.56
2022-10-19T23:05:38.808Z,101297.34
2022-10-19T23:08:05.515Z,101293.00
2022-10-19T23:10:31.965Z,101308.63
2022-10-19T23:12:58.408Z,101304.31
2022-10-19T23:15:24.853Z,101303.44
2022-10-19T23:17:51.278Z,101319.13
2022-10-19T23:20:17.755Z,101316.50
2022-10-19T23:22:44.182Z,101312.22
2022-10-19T23:25:10.600Z,101315.63
2022-10-19T23:27:37.487Z,101322.56
2022-10-19T23:30:04.496Z,101320.78
2022-10-19T23:32:30.956Z,101312.09
2022-10-19T23:34:57.415Z,101310.34
2022-10-19T23:37:23.960Z,101305.94
2022-10-19T23:39:50.411Z,101301.56
2022-10-19T23:42:16.844Z,101298.91
2022-10-19T23:44:43.283Z,101283.22
2022-10-19T23:47:09.731Z,101273.59
2022-10-19T23:49:36.177Z,101266.59
2022-10-19T23:52:02.645Z,101251.78
2022-10-19T23:54:29.080Z,101250.00
2022-10-19T23:56:55.518Z,101245.63
2022-10-19T23:59:21.978Z,101246.47
